Time;durP1;ratioP1;P1;durP2;ratioP2;P2;SDS_P1;SDS_P2;PMS_P1;PMS_P2;Temp;Humidity;BMP_temperature;BMP_pressure;BME280_temperature;BME280_humidity;BME280_pressure;Samples;Min_cycle;Max_cycle;Signal;HPM_P1;HPM_P2
2023/11/22 00:00:28;;;;;;;33.17;22.40;;;6.60;95.80;;;;;;5021317;28;20033;-76
2023/11/22 00:02:54;;;;;;;31.42;21.48;;;6.60;95.90;;;;;;5020612;28;20087;-75
2023/11/22 00:05:19;;;;;;;30.98;21.08;;;6.60;95.90;;;;;;5021755;28;20466;-74
2023/11/22 00:07:45;;;;;;;33.80;22.63;;;6.60;95.90;;;;;;5020693;28;20151;-76
2023/11/22 00:10:11;;;;;;;33.03;22.08;;;6.50;95.90;;;;;;5014684;28;20112;-75
2023/11/22 00:12:38;;;;;;;30.58;21.48;;;6.50;96.00;;;;;;5020679;28;20029;-76
2023/11/22 00:15:07;;;;;;;34.17;22.52;;;6.40;96.00;;;;;;5021563;28;20530;-76
2023/11/22 00:17:34;;;;;;;30.10;21.83;;;6.40;96.10;;;;;;5031591;28;20557;-75
2023/11/22 00:20:05;;;;;;;33.03;22.90;;;6.40;96.10;;;;;;5017928;28;20084;-77
2023/11/22 00:22:34;;;;;;;31.98;22.20;;;6.30;96.20;;;;;;5019635;28;20064;-75
2023/11/22 00:25:03;;;;;;;31.33;21.20;;;6.30;96.30;;;;;;5020258;28;20087;-76
2023/11/22 00:27:32;;;;;;;32.80;22.38;;;6.30;96.30;;;;;;5021040;28;20076;-75
2023/11/22 00:29:58;;;;;;;31.35;21.98;;;6.30;96.40;;;;;;5017949;28;20521;-77
2023/11/22 00:32:25;;;;;;;31.95;21.80;;;6.20;96.40;;;;;;5035260;28;20034;-76
2023/11/22 00:34:51;;;;;;;32.55;21.65;;;6.30;96.50;;;;;;5018801;28;20277;-77
2023/11/22 00:37:17;;;;;;;30.60;21.45;;;6.30;96.40;;;;;;5019818;28;20557;-77
2023/11/22 00:39:43;;;;;;;30.73;20.45;;;6.30;96.20;;;;;;5016561;28;20047;-78
2023/11/22 00:42:11;;;;;;;29.85;21.55;;;6.20;96.20;;;;;;5018162;28;20389;-76
2023/11/22 00:44:37;;;;;;;32.88;21.08;;;6.20;96.10;;;;;;5020315;28;20033;-76
2023/11/22 00:47:03;;;;;;;29.77;20.73;;;6.10;96.20;;;;;;5019389;28;20085;-76
2023/11/22 00:49:29;;;;;;;30.38;21.33;;;6.10;96.20;;;;;;5021782;28;20097;-76
2023/11/22 00:51:55;;;;;;;34.75;21.33;;;6.10;96.20;;;;;;5015995;28;20132;-78
2023/11/22 00:54:21;;;;;;;31.05;21.38;;;6.10;96.20;;;;;;5018296;28;20131;-76
2023/11/22 00:56:47;;;;;;;33.50;22.15;;;6.10;96.20;;;;;;5019983;28;20045;-76
2023/11/22 00:59:14;;;;;;;31.65;21.60;;;6.00;96.20;;;;;;5020609;28;20458;-76
2023/11/22 01:01:41;;;;;;;32.47;21.65;;;6.00;96.30;;;;;;5018945;28;20037;-76
2023/11/22 01:04:07;;;;;;;30.90;21.60;;;6.00;96.30;;;;;;5017432;28;20028;-76
2023/11/22 01:06:33;;;;;;;29.35;20.83;;;5.90;96.30;;;;;;5018104;28;20064;-76
2023/11/22 01:08:59;;;;;;;30.63;20.98;;;5.90;96.30;;;;;;5021831;28;20091;-76
2023/11/22 01:11:26;;;;;;;30.77;21.73;;;5.80;96.40;;;;;;5039311;28;20120;-78
2023/11/22 01:13:52;;;;;;;31.08;21.95;;;5.90;96.50;;;;;;5024524;28;20410;-77
2023/11/22 01:16:18;;;;;;;30.85;21.92;;;5.90;96.50;;;;;;5022364;28;20068;-76
2023/11/22 01:18:46;;;;;;;33.50;20.92;;;5.80;96.50;;;;;;5024218;28;20088;-77
2023/11/22 01:21:12;;;;;;;32.28;21.02;;;5.80;96.60;;;;;;5025025;28;20577;-76
2023/11/22 01:23:38;;;;;;;32.03;21.25;;;5.80;96.50;;;;;;5025133;28;20042;-76
2023/11/22 01:26:05;;;;;;;30.92;21.23;;;5.70;96.60;;;;;;5024255;28;20039;-79
2023/11/22 01:28:34;;;;;;;32.65;23.25;;;5.70;96.60;;;;;;5024564;28;20087;-76
2023/11/22 01:31:02;;;;;;;32.75;21.42;;;5.60;96.70;;;;;;5023265;28;20482;-76
2023/11/22 01:33:27;;;;;;;31.17;21.30;;;5.60;96.80;;;;;;5015928;28;20026;-78
2023/11/22 01:35:53;;;;;;;33.92;21.60;;;5.60;96.80;;;;;;5021586;28;20446;-77
2023/11/22 01:38:19;;;;;;;32.42;20.48;;;5.60;96.90;;;;;;5020787;28;20038;-76
2023/11/22 01:40:46;;;;;;;32.95;22.25;;;5.50;96.90;;;;;;5023836;28;20037;-77
2023/11/22 01:43:18;;;;;;;35.78;23.25;;;5.50;97.00;;;;;;5023689;28;20042;-75
2023/11/22 01:45:44;;;;;;;32.92;22.58;;;5.50;97.10;;;;;;5021454;28;20445;-78
2023/11/22 01:48:13;;;;;;;35.00;23.00;;;5.50;97.00;;;;;;5022460;28;20053;-77
2023/11/22 01:50:40;;;;;;;31.85;21.33;;;5.50;97.10;;;;;;5022027;28;20103;-76
2023/11/22 01:53:08;;;;;;;30.73;21.17;;;5.40;97.10;;;;;;5021929;28;20026;-77
2023/11/22 01:55:35;;;;;;;33.05;21.85;;;5.40;97.10;;;;;;5024429;28;20502;-77
2023/11/22 01:58:02;;;;;;;35.92;23.27;;;5.40;97.00;;;;;;5023359;28;20300;-76
2023/11/22 02:00:35;;;;;;;32.72;20.63;;;5.30;97.10;;;;;;5022463;28;20044;-76
2023/11/22 02:03:02;;;;;;;31.60;21.63;;;5.20;97.10;;;;;;5020997;28;20376;-76
2023/11/22 02:05:27;;;;;;;34.15;21.90;;;5.20;97.20;;;;;;5025415;28;20554;-75
2023/11/22 02:07:54;;;;;;;30.40;20.70;;;5.20;97.20;;;;;;5018481;28;20128;-79
2023/11/22 02:10:20;;;;;;;28.83;20.05;;;5.10;97.30;;;;;;5020213;28;20049;-80
2023/11/22 02:12:46;;;;;;;31.52;20.40;;;5.10;97.30;;;;;;5020378;28;20029;-78
2023/11/22 02:15:12;;;;;;;28.23;19.45;;;5.10;97.30;;;;;;5024771;28;20435;-78
2023/11/22 02:17:39;;;;;;;29.65;20.60;;;5.00;97.30;;;;;;5017477;28;20064;-78
2023/11/22 02:20:09;;;;;;;33.67;21.63;;;5.00;97.30;;;;;;5023816;28;20041;-77
2023/11/22 02:22:46;;;;;;;30.38;20.75;;;5.00;97.30;;;;;;5024577;28;20366;-77
2023/11/22 02:25:12;;;;;;;34.33;20.70;;;5.00;97.20;;;;;;5023576;28;20033;-77
2023/11/22 02:27:39;;;;;;;32.10;20.30;;;4.90;97.20;;;;;;5021751;28;20120;-77
2023/11/22 02:30:06;;;;;;;31.92;20.45;;;4.90;97.20;;;;;;5021930;28;20045;-76
2023/11/22 02:32:33;;;;;;;31.60;21.73;;;5.00;97.20;;;;;;5022100;28;20164;-75
2023/11/22 02:34:59;;;;;;;33.58;22.30;;;5.00;97.10;;;;;;5021280;28;20061;-77
2023/11/22 02:37:25;;;;;;;35.97;23.40;;;5.00;97.10;;;;;;5023120;28;20443;-78
2023/11/22 02:40:09;;;;;;;36.35;22.98;;;5.00;97.10;;;;;;5028980;28;20051;-79
2023/11/22 02:42:35;;;;;;;35.60;23.00;;;5.00;97.10;;;;;;5044632;28;20085;-79
2023/11/22 02:45:01;;;;;;;37.63;22.27;;;5.00;97.10;;;;;;5045703;28;20036;-80
2023/11/22 02:47:27;;;;;;;34.78;22.20;;;5.00;97.20;;;;;;5037292;28;20096;-79
2023/11/22 02:49:54;;;;;;;33.03;22.10;;;5.00;97.20;;;;;;5020084;28;20044;-78
2023/11/22 02:52:21;;;;;;;35.47;22.25;;;4.90;97.20;;;;;;5018835;28;20042;-79
2023/11/22 02:54:47;;;;;;;35.17;22.20;;;4.90;97.10;;;;;;5019282;28;20033;-76
2023/11/22 02:57:13;;;;;;;34.60;22.67;;;4.90;97.20;;;;;;5019747;28;20046;-77
2023/11/22 02:59:43;;;;;;;34.70;21.73;;;4.90;97.30;;;;;;5026530;28;20435;-77
2023/11/22 03:02:08;;;;;;;37.85;23.35;;;4.90;97.30;;;;;;5024140;28;20227;-78
2023/11/22 03:04:34;;;;;;;35.78;23.63;;;4.90;97.40;;;;;;5029399;28;20053;-76
2023/11/22 03:07:00;;;;;;;34.92;23.77;;;5.00;97.40;;;;;;5030460;28;20071;-80
2023/11/22 03:09:26;;;;;;;31.73;21.58;;;5.00;97.40;;;;;;5027849;28;20037;-78
2023/11/22 03:11:52;;;;;;;33.97;22.27;;;5.00;97.30;;;;;;5029164;28;20034;-78
2023/11/22 03:14:19;;;;;;;38.10;23.48;;;4.90;97.30;;;;;;5027791;28;20390;-79
2023/11/22 03:16:45;;;;;;;35.72;22.00;;;5.00;97.30;;;;;;5018677;28;20037;-78
2023/11/22 03:19:13;;;;;;;34.03;21.42;;;5.00;97.40;;;;;;5025693;28;20044;-78
2023/11/22 03:21:39;;;;;;;37.35;23.27;;;5.00;97.40;;;;;;5025954;28;20026;-77
2023/11/22 03:24:05;;;;;;;35.33;21.92;;;5.00;97.20;;;;;;5023435;28;20048;-76
2023/11/22 03:26:31;;;;;;;34.10;22.52;;;5.00;97.30;;;;;;5027694;28;20506;-77
2023/11/22 03:28:57;;;;;;;30.00;20.70;;;4.90;97.20;;;;;;5027038;28;20091;-78
2023/11/22 03:31:22;;;;;;;33.70;21.45;;;5.00;97.30;;;;;;5022314;28;20040;-76
2023/11/22 03:33:48;;;;;;;29.80;20.33;;;5.00;97.30;;;;;;5022808;28;20095;-76
2023/11/22 03:36:13;;;;;;;30.33;20.00;;;5.00;97.30;;;;;;5019897;28;20042;-78
2023/11/22 03:38:40;;;;;;;30.02;20.25;;;5.00;97.30;;;;;;5019276;28;20037;-78
2023/11/22 03:41:05;;;;;;;28.17;19.40;;;5.00;97.30;;;;;;5022775;28;20053;-78
2023/11/22 03:43:31;;;;;;;30.73;20.80;;;4.90;97.20;;;;;;5022375;28;20475;-76
2023/11/22 03:45:57;;;;;;;27.75;19.38;;;4.90;97.20;;;;;;5023887;28;20040;-76
2023/11/22 03:48:23;;;;;;;30.08;20.52;;;4.90;97.30;;;;;;5020682;28;20120;-76
2023/11/22 03:50:49;;;;;;;26.90;18.55;;;4.90;97.30;;;;;;5020942;28;20083;-76
2023/11/22 03:53:15;;;;;;;29.13;19.15;;;4.90;97.20;;;;;;5017851;28;20331;-77
2023/11/22 03:55:41;;;;;;;28.85;18.92;;;4.90;97.20;;;;;;5018419;28;20060;-75
2023/11/22 03:58:07;;;;;;;32.47;20.40;;;4.90;97.20;;;;;;5022307;28;20398;-80
2023/11/22 04:00:33;;;;;;;28.98;19.23;;;5.00;97.30;;;;;;5020793;28;20465;-76
2023/11/22 04:03:01;;;;;;;31.30;19.50;;;5.00;97.30;;;;;;5019033;28;20451;-76
2023/11/22 04:05:27;;;;;;;31.88;19.50;;;5.00;97.30;;;;;;5019696;28;20037;-78
2023/11/22 04:07:54;;;;;;;31.83;20.33;;;5.00;97.30;;;;;;5020965;28;20037;-78
2023/11/22 04:10:21;;;;;;;29.80;19.08;;;4.90;97.20;;;;;;5018281;28;20497;-77
2023/11/22 04:12:47;;;;;;;31.00;20.23;;;4.90;97.20;;;;;;5021751;28;20037;-77
2023/11/22 04:15:13;;;;;;;32.97;20.13;;;4.90;97.20;;;;;;5020850;28;20635;-77
2023/11/22 04:17:40;;;;;;;28.45;19.65;;;4.90;97.20;;;;;;5020826;28;20050;-78
2023/11/22 04:20:10;;;;;;;28.17;18.63;;;4.80;97.20;;;;;;5020739;28;20116;-79
2023/11/22 04:22:37;;;;;;;28.88;20.63;;;4.90;97.30;;;;;;5021701;28;20060;-77
2023/11/22 04:25:04;;;;;;;32.97;19.80;;;4.80;97.20;;;;;;5019489;28;20038;-77
2023/11/22 04:27:30;;;;;;;31.15;19.45;;;4.80;97.30;;;;;;5021247;28;20029;-77
2023/11/22 04:29:55;;;;;;;30.38;20.02;;;4.80;97.30;;;;;;5020926;28;20076;-77
2023/11/22 04:32:24;;;;;;;29.10;20.38;;;4.80;97.30;;;;;;5018379;28;20050;-78
2023/11/22 04:34:49;;;;;;;28.65;19.80;;;4.80;97.30;;;;;;5020771;28;21174;-78
2023/11/22 04:37:15;;;;;;;30.58;19.70;;;4.70;97.20;;;;;;5022238;28;20579;-78
2023/11/22 04:39:41;;;;;;;29.52;19.48;;;4.70;97.30;;;;;;5021350;28;20024;-79
2023/11/22 04:42:06;;;;;;;34.30;22.08;;;4.60;97.30;;;;;;5018400;28;20513;-76
2023/11/22 04:44:32;;;;;;;34.53;20.98;;;4.70;97.40;;;;;;5021746;28;20449;-76
2023/11/22 04:47:01;;;;;;;33.17;20.88;;;4.70;97.50;;;;;;5019999;28;20049;-78
2023/11/22 04:49:27;;;;;;;34.55;21.40;;;4.80;97.50;;;;;;5023446;28;20140;-75
2023/11/22 04:51:52;;;;;;;34.03;21.05;;;4.80;97.50;;;;;;5014964;28;20506;-77
2023/11/22 04:54:18;;;;;;;33.33;21.55;;;4.80;97.50;;;;;;5021934;28;20040;-78
2023/11/22 04:56:44;;;;;;;31.05;20.33;;;4.80;97.40;;;;;;5017406;28;20048;-75
2023/11/22 04:59:10;;;;;;;33.45;22.85;;;4.80;97.40;;;;;;5021866;28;20026;-77
2023/11/22 05:01:35;;;;;;;31.83;21.55;;;4.80;97.30;;;;;;5020084;28;20462;-77
2023/11/22 05:04:01;;;;;;;35.55;21.77;;;4.80;97.40;;;;;;5022004;28;20386;-77
2023/11/22 05:06:28;;;;;;;33.92;21.70;;;4.70;97.40;;;;;;5018609;28;20436;-78
2023/11/22 05:08:54;;;;;;;33.47;22.40;;;4.80;97.40;;;;;;5022120;28;20510;-78
2023/11/22 05:11:21;;;;;;;31.52;20.77;;;4.70;97.40;;;;;;5017647;28;20049;-78
2023/11/22 05:13:46;;;;;;;33.72;21.42;;;4.70;97.50;;;;;;5020340;28;20097;-79
2023/11/22 05:16:12;;;;;;;33.80;22.20;;;4.70;97.40;;;;;;5016655;28;20037;-77
2023/11/22 05:18:38;;;;;;;34.70;22.02;;;4.70;97.50;;;;;;5016622;28;20524;-79
2023/11/22 05:21:04;;;;;;;32.58;21.70;;;4.70;97.40;;;;;;5016090;28;20107;-78
2023/11/22 05:23:32;;;;;;;33.65;22.75;;;4.60;97.30;;;;;;5016750;28;20045;-77
2023/11/22 05:25:59;;;;;;;34.05;23.25;;;4.60;97.40;;;;;;5020179;28;20112;-77
2023/11/22 05:28:25;;;;;;;32.22;21.60;;;4.60;97.40;;;;;;5016565;28;20038;-78
2023/11/22 05:30:51;;;;;;;30.85;20.85;;;4.60;97.30;;;;;;5019579;28;20524;-75
2023/11/22 05:33:16;;;;;;;30.15;19.58;;;4.60;97.30;;;;;;5014296;28;20612;-76
2023/11/22 05:35:42;;;;;;;31.90;21.75;;;4.50;97.30;;;;;;5015469;28;20030;-78
2023/11/22 05:38:08;;;;;;;29.88;20.70;;;4.50;97.30;;;;;;5012770;28;20383;-78
2023/11/22 05:40:34;;;;;;;33.50;20.77;;;4.50;97.30;;;;;;5028188;28;20482;-77
2023/11/22 05:42:59;;;;;;;32.38;21.83;;;4.40;97.30;;;;;;5012935;28;20116;-76
2023/11/22 05:45:25;;;;;;;29.38;20.13;;;4.40;97.30;;;;;;5013685;28;20045;-78
2023/11/22 05:47:51;;;;;;;30.92;19.75;;;4.40;97.40;;;;;;5027758;28;20037;-76
2023/11/22 05:50:17;;;;;;;32.60;21.50;;;4.40;97.40;;;;;;5010309;28;20424;-76
2023/11/22 05:52:44;;;;;;;31.30;21.20;;;4.40;97.40;;;;;;5018552;28;20030;-76
2023/11/22 05:55:10;;;;;;;33.42;21.42;;;4.30;97.40;;;;;;5016818;28;20474;-76
2023/11/22 05:57:36;;;;;;;30.40;20.27;;;4.30;97.40;;;;;;5023434;28;20132;-77
2023/11/22 06:00:02;;;;;;;32.45;20.40;;;4.20;97.40;;;;;;5022572;28;20057;-79
2023/11/22 06:02:28;;;;;;;33.33;21.73;;;4.20;97.40;;;;;;5021225;28;20042;-77
2023/11/22 06:04:53;;;;;;;28.85;19.98;;;4.20;97.50;;;;;;5018377;28;20080;-78
2023/11/22 06:07:19;;;;;;;31.88;21.00;;;4.20;97.50;;;;;;5020712;28;20113;-76
2023/11/22 06:09:45;;;;;;;29.38;20.13;;;4.30;97.60;;;;;;5020461;28;20037;-78
2023/11/22 06:12:10;;;;;;;33.65;21.23;;;4.30;97.60;;;;;;5021358;28;20041;-77
2023/11/22 06:14:36;;;;;;;29.48;19.20;;;4.30;97.60;;;;;;5018042;28;20026;-77
2023/11/22 06:17:03;;;;;;;27.65;18.25;;;4.30;97.50;;;;;;5036817;28;20059;-78
2023/11/22 06:19:28;;;;;;;31.35;20.35;;;4.20;97.50;;;;;;5022062;28;20650;-78
2023/11/22 06:21:54;;;;;;;29.48;19.85;;;4.20;97.50;;;;;;5021710;28;20041;-77
2023/11/22 06:24:20;;;;;;;28.17;18.75;;;4.30;97.50;;;;;;5021170;28;20359;-79
2023/11/22 06:26:49;;;;;;;31.30;20.73;;;4.20;97.30;;;;;;5018426;28;20133;-78
2023/11/22 06:29:15;;;;;;;30.27;20.80;;;4.20;97.20;;;;;;5019604;28;20052;-78
2023/11/22 06:31:40;;;;;;;30.73;19.73;;;4.20;97.10;;;;;;5037048;28;20433;-78
2023/11/22 06:34:06;;;;;;;30.58;19.73;;;4.20;97.00;;;;;;5021541;28;20021;-77
2023/11/22 06:36:32;;;;;;;31.17;19.90;;;4.20;97.00;;;;;;5035126;28;20042;-76
2023/11/22 06:38:58;;;;;;;30.50;20.35;;;4.20;97.00;;;;;;5022634;28;20755;-78
2023/11/22 06:41:24;;;;;;;33.50;22.02;;;4.20;97.00;;;;;;5032420;28;20125;-78
2023/11/22 06:43:50;;;;;;;29.90;19.95;;;4.20;97.00;;;;;;5021254;28;20018;-80
2023/11/22 06:46:18;;;;;;;30.50;20.45;;;4.20;97.00;;;;;;5018591;28;20524;-81
2023/11/22 06:48:44;;;;;;;32.20;21.15;;;4.20;97.00;;;;;;5020049;28;20112;-78
2023/11/22 06:51:10;;;;;;;39.25;28.48;;;4.30;97.10;;;;;;5019051;28;20167;-80
2023/11/22 06:53:35;;;;;;;33.50;27.13;;;4.20;97.10;;;;;;5020859;28;20659;-79
2023/11/22 06:56:01;;;;;;;35.30;24.90;;;4.30;97.10;;;;;;5018333;28;20117;-79
2023/11/22 06:58:27;;;;;;;33.08;22.10;;;4.30;97.10;;;;;;5038509;28;20076;-78
2023/11/22 07:00:55;;;;;;;33.17;22.20;;;4.30;97.20;;;;;;5021013;28;20029;-78
2023/11/22 07:03:21;;;;;;;35.85;23.02;;;4.30;97.20;;;;;;5019634;28;20099;-78
2023/11/22 07:05:47;;;;;;;34.47;24.38;;;4.40;97.20;;;;;;5020217;28;20486;-79
2023/11/22 07:08:12;;;;;;;36.40;22.88;;;4.40;97.20;;;;;;5019237;28;20067;-77
2023/11/22 07:10:39;;;;;;;33.78;22.88;;;4.40;97.20;;;;;;5020148;28;20123;-77
2023/11/22 07:13:05;;;;;;;39.20;24.25;;;4.40;97.30;;;;;;5020434;28;20467;-77
2023/11/22 07:15:30;;;;;;;39.08;25.50;;;4.40;97.30;;;;;;5018696;28;20052;-77
2023/11/22 07:17:56;;;;;;;37.67;25.83;;;4.50;97.30;;;;;;5019680;28;20111;-79
2023/11/22 07:20:23;;;;;;;43.80;26.58;;;4.50;97.20;;;;;;5020001;28;20061;-77
2023/11/22 07:22:54;;;;;;;36.28;24.30;;;4.50;97.20;;;;;;5021594;28;20448;-79
2023/11/22 07:25:24;;;;;;;36.60;23.05;;;4.50;97.20;;;;;;5021428;28;20254;-78
2023/11/22 07:27:51;;;;;;;35.03;21.67;;;4.50;97.10;;;;;;5034467;28;20128;-78
2023/11/22 07:30:19;;;;;;;34.83;23.63;;;4.50;97.10;;;;;;5022468;28;20061;-79
2023/11/22 07:32:44;;;;;;;36.20;23.45;;;4.50;97.00;;;;;;5020190;28;20033;-75
2023/11/22 07:35:11;;;;;;;31.20;21.83;;;4.40;96.90;;;;;;5019755;28;20439;-74
2023/11/22 07:37:40;;;;;;;32.45;22.02;;;4.40;97.00;;;;;;5022872;28;20068;-75
2023/11/22 07:40:08;;;;;;;30.27;20.95;;;4.50;97.10;;;;;;5019687;28;20048;-76
2023/11/22 07:42:34;;;;;;;33.55;22.55;;;4.60;97.20;;;;;;5019073;28;20045;-76
2023/11/22 07:44:59;;;;;;;32.17;23.13;;;4.60;97.10;;;;;;5021056;28;20029;-73
2023/11/22 07:47:26;;;;;;;34.22;22.92;;;4.70;97.00;;;;;;5013062;28;20034;-75
2023/11/22 07:49:52;;;;;;;32.97;21.40;;;4.70;96.90;;;;;;5036274;28;20033;-75
2023/11/22 07:52:17;;;;;;;29.55;20.80;;;4.80;96.80;;;;;;5030134;28;20537;-76
2023/11/22 07:54:44;;;;;;;28.13;19.83;;;4.80;96.70;;;;;;5034089;28;20344;-78
2023/11/22 07:57:10;;;;;;;27.65;18.73;;;4.80;96.70;;;;;;5019439;28;20052;-75
2023/11/22 07:59:36;;;;;;;28.35;18.70;;;4.90;96.60;;;;;;5019443;28;20037;-76
2023/11/22 08:02:02;;;;;;;30.42;20.25;;;4.80;96.60;;;;;;5035042;28;20107;-75
2023/11/22 08:04:28;;;;;;;26.75;17.40;;;4.90;96.60;;;;;;5020790;28;20397;-76
2023/11/22 08:06:56;;;;;;;29.05;20.42;;;5.00;96.40;;;;;;5019138;28;20071;-75
2023/11/22 08:09:23;;;;;;;33.83;24.65;;;5.00;96.40;;;;;;5012437;28;20450;-75
2023/11/22 08:11:49;;;;;;;28.08;20.55;;;5.00;96.40;;;;;;5011874;28;20045;-76
2023/11/22 08:14:15;;;;;;;29.88;19.92;;;5.10;96.40;;;;;;5021133;28;20060;-76
2023/11/22 08:16:42;;;;;;;31.40;22.08;;;5.10;96.40;;;;;;5019259;28;20530;-76
2023/11/22 08:19:09;;;;;;;27.77;18.88;;;5.10;96.40;;;;;;5018755;28;20471;-75
2023/11/22 08:21:34;;;;;;;29.05;19.42;;;5.20;96.30;;;;;;5019486;28;20430;-77
2023/11/22 08:24:01;;;;;;;29.15;19.20;;;5.20;96.30;;;;;;5016318;28;20474;-76
2023/11/22 08:26:26;;;;;;;28.15;19.92;;;5.20;96.40;;;;;;5018810;28;20045;-76
2023/11/22 08:28:53;;;;;;;30.63;21.95;;;5.30;96.40;;;;;;5018232;28;20050;-76
2023/11/22 08:31:20;;;;;;;33.20;22.90;;;5.40;96.40;;;;;;5020651;28;20513;-77
2023/11/22 08:33:45;;;;;;;32.63;22.55;;;5.50;96.40;;;;;;5021786;28;20014;-76
2023/11/22 08:36:11;;;;;;;38.03;26.77;;;5.60;96.60;;;;;;5017411;28;20053;-76
2023/11/22 08:38:40;;;;;;;34.80;24.45;;;5.80;96.40;;;;;;5024221;28;20045;-75
2023/11/22 08:41:07;;;;;;;36.35;25.55;;;5.90;96.40;;;;;;5014684;28;20167;-81
2023/11/22 08:43:33;;;;;;;36.08;27.00;;;6.10;96.50;;;;;;5018774;28;20038;-76
2023/11/22 08:45:59;;;;;;;36.60;26.92;;;6.20;96.30;;;;;;5019432;28;20037;-76
2023/11/22 08:48:25;;;;;;;35.97;26.42;;;6.20;96.10;;;;;;5020475;28;20033;-75
2023/11/22 08:50:53;;;;;;;40.67;27.75;;;6.40;96.10;;;;;;5016684;28;20053;-75
2023/11/22 08:53:19;;;;;;;37.58;25.90;;;6.40;96.00;;;;;;5016937;28;20060;-74
2023/11/22 08:55:45;;;;;;;38.78;28.02;;;6.50;96.10;;;;;;5010888;28;20033;-76
2023/11/22 08:58:11;;;;;;;39.25;26.98;;;6.60;96.10;;;;;;5015018;28;20116;-77
2023/11/22 09:00:37;;;;;;;38.13;26.52;;;6.70;95.70;;;;;;5018974;28;20044;-78
2023/11/22 09:03:05;;;;;;;34.53;26.13;;;6.80;95.60;;;;;;5008422;28;20106;-76
2023/11/22 09:05:31;;;;;;;39.60;27.88;;;7.00;95.70;;;;;;5011458;28;20440;-76
2023/11/22 09:07:58;;;;;;;40.83;28.20;;;7.10;95.60;;;;;;5016579;28;20034;-82
2023/11/22 09:10:24;;;;;;;39.35;27.05;;;7.10;95.50;;;;;;5014250;28;20037;-78
2023/11/22 09:12:51;;;;;;;40.05;27.08;;;7.30;95.40;;;;;;5018227;28;20670;-76
2023/11/22 09:15:18;;;;;;;40.50;29.00;;;7.40;95.20;;;;;;5036856;28;20445;-78
2023/11/22 09:17:45;;;;;;;38.92;27.83;;;7.50;94.90;;;;;;5019714;28;20330;-76
2023/11/22 09:20:15;;;;;;;40.58;29.67;;;7.60;94.80;;;;;;5019720;28;20083;-76
2023/11/22 09:22:49;;;;;;;43.78;30.63;;;7.70;94.60;;;;;;5021561;28;20453;-77
2023/11/22 09:25:19;;;;;;;40.30;28.48;;;7.70;94.20;;;;;;5021620;28;20550;-76
2023/11/22 09:27:55;;;;;;;38.90;28.77;;;7.80;93.90;;;;;;5019807;28;20037;-76
2023/11/22 09:33:08;;;;;;;42.95;29.60;;;7.90;93.30;;;;;;5016291;28;20080;-80
2023/11/22 09:35:35;;;;;;;40.70;28.92;;;7.90;93.30;;;;;;5014168;28;20981;-80
2023/11/22 09:38:09;;;;;;;40.22;29.30;;;8.00;92.90;;;;;;5015444;28;20029;-77
2023/11/22 09:40:36;;;;;;;40.55;30.13;;;8.10;93.00;;;;;;5015005;28;20045;-78
2023/11/22 09:43:02;;;;;;;45.80;31.42;;;8.20;92.70;;;;;;5015533;28;20044;-77
2023/11/22 09:45:32;;;;;;;41.00;28.88;;;8.20;92.60;;;;;;5013581;28;20152;-76
2023/11/22 09:47:57;;;;;;;41.28;29.42;;;8.20;91.50;;;;;;5014569;28;20437;-80
2023/11/22 09:50:42;;;;;;;42.15;30.60;;;8.20;91.60;;;;;;5015405;28;20025;-79
2023/11/22 09:53:18;;;;;;;41.22;30.20;;;8.30;91.60;;;;;;5012910;28;20036;-77
2023/11/22 09:55:45;;;;;;;38.70;28.23;;;8.30;91.30;;;;;;5014303;28;20470;-78
2023/11/22 09:58:13;;;;;;;40.70;29.95;;;8.20;91.20;;;;;;5012724;28;20068;-79
2023/11/22 10:00:41;;;;;;;37.40;28.70;;;8.30;91.20;;;;;;5016131;28;20034;-76
2023/11/22 10:03:07;;;;;;;37.40;27.80;;;8.20;90.90;;;;;;5011788;28;20033;-78
2023/11/22 10:05:33;;;;;;;41.65;30.33;;;8.10;90.40;;;;;;5012788;28;20569;-77
2023/11/22 10:08:00;;;;;;;41.40;29.83;;;8.20;91.30;;;;;;5012724;28;20038;-78
2023/11/22 10:10:26;;;;;;;44.42;31.63;;;8.30;91.00;;;;;;5007711;28;20045;-79
2023/11/22 10:12:58;;;;;;;38.03;28.05;;;8.40;91.10;;;;;;5012068;28;20505;-81
2023/11/22 10:15:27;;;;;;;40.03;28.20;;;8.50;91.20;;;;;;5013162;28;20053;-75
2023/11/22 10:17:57;;;;;;;40.80;28.30;;;8.60;90.40;;;;;;5012594;28;20471;-76
2023/11/22 10:20:46;;;;;;;39.80;29.75;;;8.50;90.40;;;;;;5015033;28;20057;-75
2023/11/22 10:23:14;;;;;;;46.75;31.00;;;8.60;90.70;;;;;;5013319;28;20144;-78
2023/11/22 10:25:51;;;;;;;42.97;29.20;;;8.80;90.70;;;;;;5030509;28;20045;-77
2023/11/22 10:28:21;;;;;;;43.10;29.85;;;8.80;89.70;;;;;;5011313;28;20486;-79
2023/11/22 10:30:48;;;;;;;42.75;29.67;;;8.90;89.50;;;;;;5013101;28;20088;-76
2023/11/22 10:33:15;;;;;;;41.42;31.33;;;9.00;89.40;;;;;;5012343;28;20030;-77
2023/11/22 10:35:46;;;;;;;39.78;29.88;;;9.00;89.30;;;;;;5015308;28;20739;-76
2023/11/22 10:38:18;;;;;;;40.17;29.20;;;9.10;89.00;;;;;;5012856;28;20379;-75
2023/11/22 10:40:45;;;;;;;39.08;29.40;;;9.10;89.00;;;;;;5026639;28;20034;-77
2023/11/22 10:43:17;;;;;;;37.97;27.48;;;9.10;88.90;;;;;;5017192;28;20030;-78
2023/11/22 10:45:48;;;;;;;36.75;27.52;;;9.20;89.50;;;;;;5016414;28;20046;-77
2023/11/22 10:48:17;;;;;;;40.65;29.40;;;9.10;87.80;;;;;;5006965;28;20125;-78
2023/11/22 10:50:47;;;;;;;40.60;28.52;;;9.20;88.60;;;;;;5018477;28;20113;-76
2023/11/22 10:53:20;;;;;;;36.42;27.15;;;9.30;88.40;;;;;;5019095;28;20483;-77
2023/11/22 10:55:47;;;;;;;36.47;26.83;;;9.40;88.60;;;;;;5018408;28;20026;-77
2023/11/22 10:58:15;;;;;;;43.35;27.20;;;9.40;88.10;;;;;;5016495;28;20556;-76
2023/11/22 11:00:41;;;;;;;34.53;25.50;;;9.40;87.80;;;;;;5021650;28;20171;-77
2023/11/22 11:03:21;;;;;;;40.10;27.38;;;9.40;87.60;;;;;;5019009;28;20664;-76
2023/11/22 11:06:09;;;;;;;40.60;27.92;;;9.30;87.60;;;;;;5016919;28;20060;-77
2023/11/22 11:08:38;;;;;;;40.35;29.50;;;9.40;88.00;;;;;;5014323;28;20068;-77
2023/11/22 11:11:05;;;;;;;43.28;31.38;;;9.50;87.70;;;;;;5014450;28;20128;-77
2023/11/22 11:13:31;;;;;;;39.85;30.27;;;9.50;87.90;;;;;;5015515;28;20034;-77
2023/11/22 11:15:58;;;;;;;51.85;38.22;;;9.60;87.50;;;;;;5015678;28;20083;-75
2023/11/22 11:18:25;;;;;;;46.97;34.55;;;9.50;87.40;;;;;;5014564;28;20089;-79
2023/11/22 11:21:02;;;;;;;42.85;31.30;;;9.50;87.70;;;;;;5016094;28;20136;-76
2023/11/22 11:23:28;;;;;;;38.83;29.00;;;9.60;87.70;;;;;;5011576;28;20102;-75
2023/11/22 11:26:03;;;;;;;38.17;29.52;;;9.70;87.10;;;;;;5014166;28;20104;-75
2023/11/22 11:28:47;;;;;;;36.08;26.30;;;9.70;87.20;;;;;;5012555;28;20374;-77
2023/11/22 11:31:14;;;;;;;36.40;27.55;;;9.70;86.60;;;;;;5008632;28;20208;-77
2023/11/22 11:33:48;;;;;;;38.03;29.90;;;9.60;87.00;;;;;;5015414;28;20045;-76
2023/11/22 11:36:24;;;;;;;;;;;9.70;87.00;;;;;;5013403;28;20505;-75
2023/11/22 11:38:52;;;;;;;36.65;28.20;;;9.90;86.60;;;;;;5014040;28;19924;-78
2023/11/22 11:41:18;;;;;;;40.88;28.58;;;9.80;86.30;;;;;;5011097;28;20037;-76
2023/11/22 11:43:46;;;;;;;42.28;30.00;;;9.80;86.60;;;;;;5013238;28;20063;-77
2023/11/22 11:46:13;;;;;;;39.08;30.30;;;9.90;86.70;;;;;;5011391;28;20034;-75
2023/11/22 11:48:43;;;;;;;41.63;30.48;;;9.90;86.50;;;;;;5010198;28;20053;-75
2023/11/22 11:51:09;;;;;;;42.03;32.05;;;9.90;86.20;;;;;;5011613;28;20033;-78
2023/11/22 11:53:35;;;;;;;52.72;37.67;;;9.80;86.40;;;;;;5012453;28;20041;-76
2023/11/22 11:56:02;;;;;;;55.28;39.00;;;9.70;85.70;;;;;;5014249;28;20090;-77
2023/11/22 11:58:27;;;;;;;48.85;34.80;;;9.70;86.40;;;;;;5016153;28;20127;-78
2023/11/22 12:00:55;;;;;;;54.50;39.13;;;9.70;86.70;;;;;;5021261;28;20136;-76
2023/11/22 12:03:21;;;;;;;46.40;34.83;;;9.90;87.10;;;;;;5015329;28;20094;-76
2023/11/22 12:05:50;;;;;;;40.47;31.10;;;10.10;86.60;;;;;;5018749;28;20064;-80
2023/11/22 12:08:18;;;;;;;41.35;29.55;;;10.10;86.00;;;;;;5019467;28;20076;-76
2023/11/22 12:10:48;;;;;;;46.05;33.45;;;10.20;85.90;;;;;;5016053;28;20482;-75
2023/11/22 12:13:18;;;;;;;43.58;32.75;;;10.20;85.30;;;;;;5018989;28;20037;-76
2023/11/22 12:15:43;;;;;;;43.85;31.55;;;10.30;85.30;;;;;;5019659;28;20063;-79
2023/11/22 12:18:09;;;;;;;51.78;38.88;;;10.30;85.10;;;;;;5018672;28;20686;-78
2023/11/22 12:20:36;;;;;;;43.05;30.52;;;10.20;85.30;;;;;;5016449;28;20401;-80
2023/11/22 12:23:02;;;;;;;50.40;35.60;;;10.10;84.50;;;;;;5017702;28;20033;-76
2023/11/22 12:25:28;;;;;;;49.28;36.75;;;10.00;85.50;;;;;;5018610;28;20045;-77
2023/11/22 12:27:56;;;;;;;44.60;34.55;;;10.10;86.20;;;;;;5016616;28;20028;-79
2023/11/22 12:30:32;;;;;;;42.47;32.15;;;9.90;85.50;;;;;;5018886;28;20095;-79
2023/11/22 12:33:02;;;;;;;42.72;32.47;;;10.00;86.00;;;;;;5020732;28;20037;-78
2023/11/22 12:35:29;;;;;;;46.90;35.80;;;9.90;86.10;;;;;;5017946;28;20039;-77
2023/11/22 12:37:55;;;;;;;45.97;34.22;;;10.00;86.50;;;;;;5019390;28;20034;-79